createdAt,value
2022-11-05T00:00:37.572Z,5.22
2022-11-05T00:03:24.323Z,4.75
2022-11-05T00:06:11.728Z,4.95
2022-11-05T00:08:57.931Z,4.65
2022-11-05T00:11:52.319Z,4.53
2022-11-05T00:14:38.092Z,4.57
2022-11-05T00:17:05.193Z,4.63
2022-11-05T00:19:32.157Z,4.85
2022-11-05T00:22:17.983Z,4.13
2022-11-05T00:25:03.855Z,4.80
2022-11-05T00:27:34.295Z,4.88
2022-11-05T00:30:01.427Z,5.60
2022-11-05T00:32:28.567Z,5.00
2022-11-05T00:34:55.542Z,5.15
2022-11-05T00:37:22.505Z,5.78
2022-11-05T00:39:52.415Z,4.97
2022-11-05T00:42:38.668Z,5.43
2022-11-05T00:45:07.056Z,5.90
2022-11-05T00:47:52.862Z,5.30
2022-11-05T00:50:22.012Z,5.03
2022-11-05T00:53:08.163Z,5.25
2022-11-05T00:55:41.309Z,5.72
2022-11-05T00:58:14.920Z,5.90
2022-11-05T01:00:45.270Z,4.70
2022-11-05T01:03:15.090Z,5.65
2022-11-05T01:05:51.034Z,5.50
2022-11-05T01:08:20.644Z,6.28
2022-11-05T01:10:51.188Z,6.75
2022-11-05T01:13:27.439Z,7.40
2022-11-05T01:15:55.232Z,7.72
2022-11-05T01:40:27.327Z,10.43
2022-11-05T01:42:54.306Z,10.95
2022-11-05T01:45:27.742Z,10.70
2022-11-05T01:48:09.016Z,11.15
2022-11-05T01:51:13.355Z,10.75
2022-11-05T01:53:48.084Z,10.40
2022-11-05T01:56:25.780Z,9.63
2022-11-05T01:59:14.194Z,10.68
2022-11-05T02:04:17.371Z,11.38
2022-11-05T02:06:46.287Z,9.50
2022-11-05T02:09:26.854Z,9.25
2022-11-05T02:11:54.153Z,9.43
2022-11-05T02:14:21.217Z,9.90
2022-11-05T02:17:12.535Z,9.65
2022-11-05T02:20:28.854Z,9.43
2022-11-05T02:23:01.550Z,8.95
2022-11-05T02:25:59.327Z,9.23
2022-11-05T02:28:47.776Z,9.10
2022-11-05T02:31:42.459Z,8.95
2022-11-05T02:34:43.547Z,7.28
2022-11-05T02:37:35.821Z,8.40
2022-11-05T02:40:14.783Z,7.28
2022-11-05T02:43:01.208Z,6.78
2022-11-05T02:45:49.482Z,7.43
2022-11-05T02:48:22.059Z,6.88
2022-11-05T02:51:23.936Z,7.13
2022-11-05T02:54:19.442Z,6.90
2022-11-05T02:56:49.915Z,7.82
2022-11-05T02:59:17.095Z,7.32
2022-11-05T03:01:46.178Z,7.97
2022-11-05T03:04:16.590Z,7.93
2022-11-05T03:07:26.971Z,8.07
2022-11-05T03:10:33.639Z,8.15
2022-11-05T03:13:33.682Z,8.13
2022-11-05T03:16:19.301Z,9.50
2022-11-05T03:19:08.096Z,8.27
2022-11-05T03:22:02.043Z,7.40
2022-11-05T03:24:34.508Z,7.18
2022-11-05T03:27:09.295Z,8.05
2022-11-05T03:29:45.254Z,7.70
2022-11-05T03:32:12.757Z,7.60
2022-11-05T03:34:44.633Z,8.27
2022-11-05T03:37:11.633Z,8.10
2022-11-05T03:39:43.746Z,8.32
2022-11-05T03:42:14.546Z,7.82
2022-11-05T03:44:46.412Z,7.53
2022-11-05T03:47:19.126Z,7.60
2022-11-05T03:50:42.055Z,7.25
2022-11-05T03:53:16.867Z,7.70
2022-11-05T03:56:15.990Z,7.53
2022-11-05T03:58:44.903Z,7.50
2022-11-05T04:01:12.687Z,7.30
2022-11-05T04:03:39.705Z,7.15
2022-11-05T04:06:28.458Z,7.70
2022-11-05T04:09:15.039Z,7.45
2022-11-05T04:12:00.968Z,7.72
2022-11-05T04:14:27.952Z,8.10
2022-11-05T04:17:07.274Z,8.40
2022-11-05T04:20:04.136Z,9.25
2022-11-05T04:22:52.168Z,7.28
2022-11-05T04:25:21.375Z,6.55
2022-11-05T04:27:49.004Z,7.43
2022-11-05T04:30:20.756Z,7.20
2022-11-05T04:33:13.659Z,7.18
2022-11-05T04:35:46.110Z,7.10
2022-11-05T04:38:15.674Z,6.95
2022-11-05T04:40:43.286Z,6.85
2022-11-05T04:43:15.587Z,7.80
2022-11-05T04:45:43.391Z,7.70
2022-11-05T04:48:10.491Z,7.85
2022-11-05T04:50:37.526Z,7.43
2022-11-05T04:53:04.478Z,7.35
2022-11-05T04:55:31.549Z,7.90
2022-11-05T04:57:58.590Z,7.78
2022-11-05T05:00:26.118Z,8.30
2022-11-05T05:02:53.263Z,7.47
2022-11-05T05:05:21.352Z,8.57
2022-11-05T05:07:48.343Z,7.78
2022-11-05T05:10:15.307Z,6.88
2022-11-05T05:12:42.495Z,7.68
2022-11-05T05:15:09.477Z,7.47
2022-11-05T05:17:36.482Z,7.25
2022-11-05T05:20:22.271Z,6.88
2022-11-05T05:22:53.852Z,8.13
2022-11-05T05:25:21.843Z,7.13
2022-11-05T05:27:49.224Z,7.93
2022-11-05T05:30:16.237Z,7.50
2022-11-05T05:32:43.216Z,7.43
2022-11-05T05:35:10.576Z,8.00
2022-11-05T05:37:37.737Z,8.32
2022-11-05T05:40:05.160Z,7.93
2022-11-05T05:42:32.670Z,8.68
2022-11-05T05:44:59.643Z,7.47
2022-11-05T05:47:26.895Z,6.90
2022-11-05T05:49:53.894Z,7.65
2022-11-05T05:52:21.173Z,7.65
2022-11-05T05:54:48.167Z,7.50
2022-11-05T05:57:15.139Z,7.25
2022-11-05T05:59:42.189Z,7.28
2022-11-05T06:02:09.556Z,7.15
2022-11-05T06:04:36.619Z,7.75
2022-11-05T06:07:03.652Z,7.13
2022-11-05T06:09:30.640Z,7.75
2022-11-05T06:11:57.658Z,7.82
2022-11-05T06:14:24.997Z,7.85
2022-11-05T06:16:51.972Z,7.07
2022-11-05T06:19:19.133Z,7.97
2022-11-05T06:21:46.231Z,7.80
2022-11-05T06:24:13.237Z,8.00
2022-11-05T06:26:42.967Z,8.07
2022-11-05T06:29:10.699Z,7.55
2022-11-05T06:31:37.739Z,6.82
2022-11-05T06:34:04.705Z,7.57
2022-11-05T06:36:31.646Z,7.57
2022-11-05T06:38:58.945Z,7.35
2022-11-05T06:41:26.397Z,6.93
2022-11-05T06:43:53.350Z,7.93
2022-11-05T06:46:20.484Z,7.63
2022-11-05T06:48:49.020Z,7.05
2022-11-05T06:51:16.064Z,7.40
2022-11-05T06:53:43.034Z,7.68
2022-11-05T06:56:10.261Z,7.43
2022-11-05T06:58:37.412Z,7.07
2022-11-05T07:01:09.861Z,8.30
2022-11-05T07:03:38.101Z,7.97
2022-11-05T07:06:06.580Z,7.57
2022-11-05T07:08:38.076Z,6.80
2022-11-05T07:11:05.741Z,8.13
2022-11-05T07:13:32.930Z,7.80
2022-11-05T07:15:59.975Z,8.40
2022-11-05T07:18:27.013Z,7.65
2022-11-05T07:20:54.041Z,7.47
2022-11-05T07:23:21.222Z,7.38
2022-11-05T07:25:48.984Z,7.20
2022-11-05T07:28:15.966Z,7.03
2022-11-05T07:30:42.979Z,6.60
2022-11-05T07:33:10.421Z,6.63
2022-11-05T07:35:37.625Z,6.15
2022-11-05T07:38:04.651Z,5.90
2022-11-05T07:40:31.967Z,5.85
2022-11-05T07:43:01.725Z,5.60
2022-11-05T07:45:30.505Z,6.00
2022-11-05T07:48:00.718Z,6.57
2022-11-05T07:50:31.337Z,6.80
2022-11-05T07:53:05.961Z,7.75
2022-11-05T07:55:34.017Z,6.40
2022-11-05T07:58:00.985Z,6.63
2022-11-05T08:00:28.949Z,6.57
2022-11-05T08:03:08.214Z,6.55
2022-11-05T08:05:38.301Z,6.47
2022-11-05T08:08:07.733Z,5.85
2022-11-05T08:10:35.728Z,6.47
2022-11-05T08:13:03.182Z,6.13
2022-11-05T08:15:30.507Z,6.43
2022-11-05T08:18:12.603Z,6.65
2022-11-05T08:20:41.258Z,6.88
2022-11-05T08:23:09.103Z,6.88
2022-11-05T08:25:36.805Z,6.55
2022-11-05T08:28:12.965Z,6.20
2022-11-05T08:30:40.518Z,6.32
2022-11-05T08:33:12.040Z,7.05
2022-11-05T08:38:09.087Z,6.43
2022-11-05T08:40:36.686Z,6.30
2022-11-05T08:43:06.934Z,7.35
2022-11-05T08:45:35.026Z,6.65
2022-11-05T08:48:15.469Z,7.40
2022-11-05T08:50:43.435Z,7.00
2022-11-05T08:53:11.465Z,8.10
2022-11-05T08:55:38.772Z,7.38
2022-11-05T08:58:10.779Z,8.52
2022-11-05T09:00:38.053Z,6.82
2022-11-05T09:03:07.063Z,7.53
2022-11-05T09:05:39.189Z,10.43
2022-11-05T09:08:07.990Z,11.73
2022-11-05T09:10:35.407Z,12.05
2022-11-05T09:20:25.222Z,8.65
2022-11-05T09:22:52.621Z,7.97
2022-11-05T09:25:19.770Z,9.00
2022-11-05T09:27:46.893Z,7.78
2022-11-05T09:30:14.269Z,8.10
2022-11-05T09:32:41.908Z,8.02
2022-11-05T09:35:09.637Z,8.10
2022-11-05T09:37:38.183Z,8.07
2022-11-05T09:40:06.364Z,8.60
2022-11-05T09:42:41.557Z,8.20
2022-11-05T09:45:19.087Z,7.13
2022-11-05T09:48:05.490Z,7.78
2022-11-05T09:50:40.653Z,8.13
2022-11-05T09:53:10.117Z,9.40
2022-11-05T09:55:44.758Z,7.88
2022-11-05T10:00:57.235Z,8.18
2022-11-05T10:03:26.575Z,7.65
2022-11-05T10:06:05.988Z,7.13
2022-11-05T10:08:40.085Z,7.78
2022-11-05T10:11:39.469Z,8.30
2022-11-05T10:14:21.058Z,7.65
2022-11-05T10:17:04.705Z,8.07
2022-11-05T10:20:15.393Z,7.85
2022-11-05T10:22:46.647Z,8.60
2022-11-05T10:25:21.904Z,8.07
2022-11-05T10:27:55.916Z,7.30
2022-11-05T10:30:23.317Z,7.22
2022-11-05T10:32:56.630Z,7.45
2022-11-05T10:35:27.484Z,7.10
2022-11-05T10:37:56.803Z,6.40
2022-11-05T10:40:49.246Z,7.15
2022-11-05T10:43:49.445Z,6.85
2022-11-05T10:46:34.364Z,7.13
2022-11-05T10:49:04.695Z,7.82
2022-11-05T10:51:32.955Z,8.63
2022-11-05T10:54:19.808Z,7.22
2022-11-05T10:56:47.045Z,7.07
2022-11-05T10:59:29.524Z,7.55
2022-11-05T11:02:26.212Z,8.07
2022-11-05T11:04:54.137Z,8.88
2022-11-05T11:07:25.244Z,8.32
2022-11-05T11:09:52.733Z,8.10
2022-11-05T11:12:26.166Z,8.25
2022-11-05T11:15:14.379Z,7.95
2022-11-05T11:17:41.495Z,8.30
2022-11-05T11:20:30.543Z,8.68
2022-11-05T11:23:13.024Z,8.20
2022-11-05T11:25:52.919Z,8.23
2022-11-05T11:28:43.395Z,8.02
2022-11-05T11:31:13.632Z,8.30
2022-11-05T11:33:45.515Z,7.88
2022-11-05T11:36:13.714Z,7.45
2022-11-05T11:38:41.452Z,7.40
2022-11-05T11:41:38.579Z,7.35
2022-11-05T11:44:19.446Z,7.45
2022-11-05T11:46:50.310Z,8.03
2022-11-05T11:49:41.431Z,7.53
2022-11-05T11:52:19.020Z,7.88
2022-11-05T11:54:45.981Z,8.00
2022-11-05T11:57:27.401Z,7.43
2022-11-05T12:00:12.087Z,8.65
2022-11-05T12:02:57.311Z,7.30
2022-11-05T12:05:44.981Z,7.78
2022-11-05T12:08:45.247Z,7.57
2022-11-05T12:11:38.007Z,7.75
2022-11-05T12:14:49.008Z,6.90
2022-11-05T12:17:39.313Z,6.78
2022-11-05T12:20:32.136Z,7.28
2022-11-05T12:24:05.530Z,7.13
2022-11-05T12:26:39.873Z,5.97
2022-11-05T12:29:24.760Z,6.82
2022-11-05T12:32:27.844Z,7.22
2022-11-05T12:35:13.709Z,6.68
2022-11-05T12:38:27.400Z,8.30
2022-11-05T12:40:57.283Z,7.97
2022-11-05T12:43:48.966Z,7.88
2022-11-05T12:46:31.761Z,7.57
2022-11-05T12:49:35.639Z,8.20
2022-11-05T12:52:27.141Z,7.35
2022-11-05T12:55:13.679Z,7.80
2022-11-05T12:57:43.335Z,7.57
2022-11-05T15:42:27.827Z,9.63
2022-11-05T15:44:57.400Z,12.23
2022-11-05T15:47:34.954Z,9.95
2022-11-05T22:41:14.492Z,10.07
2022-11-05T23:16:46.996Z,10.68
2022-11-05T23:19:40.251Z,9.77
2022-11-05T23:22:44.766Z,10.05
2022-11-05T23:25:19.640Z,10.25
2022-11-05T23:27:49.661Z,10.18
2022-11-05T23:30:25.042Z,10.23
2022-11-05T23:32:53.192Z,10.35
2022-11-05T23:35:43.069Z,9.95
2022-11-05T23:38:28.886Z,9.73
2022-11-05T23:41:19.897Z,10.00
2022-11-05T23:44:06.040Z,10.80
2022-11-05T23:46:51.822Z,9.85
2022-11-05T23:49:19.552Z,9.82
2022-11-05T23:51:46.686Z,8.98
2022-11-05T23:54:13.914Z,9.40
2022-11-05T23:56:40.961Z,9.80
